Time;durP1;ratioP1;P1;durP2;ratioP2;P2;SDS_P1;SDS_P2;PMS_P1;PMS_P2;Temp;Humidity;BMP_temperature;BMP_pressure;BME280_temperature;BME280_humidity;BME280_pressure;Samples;Min_cycle;Max_cycle;Signal;HPM_P1;HPM_P2
2022/01/09 00:00:25;;;;;;;13.53;7.00;;;-0.10;99.90;;;;;;4993262;28;20575;-66
2022/01/09 00:02:53;;;;;;;13.03;6.93;;;-0.10;99.90;;;;;;4992601;28;20231;-66
2022/01/09 00:05:20;;;;;;;15.90;7.20;;;-0.10;99.90;;;;;;4993137;28;20238;-69
2022/01/09 00:07:47;;;;;;;15.07;6.63;;;-0.10;99.90;;;;;;4993568;28;20211;-68
2022/01/09 00:10:16;;;;;;;13.90;7.07;;;-0.10;99.90;;;;;;4993447;28;20222;-68
2022/01/09 00:12:43;;;;;;;13.27;6.43;;;-0.10;99.90;;;;;;4993708;28;20211;-67
2022/01/09 00:15:10;;;;;;;15.33;6.80;;;-0.10;99.90;;;;;;4993182;28;20665;-67
2022/01/09 00:17:37;;;;;;;14.37;6.87;;;-0.10;99.90;;;;;;4993499;28;20203;-66
2022/01/09 00:20:06;;;;;;;15.33;6.90;;;-0.20;99.90;;;;;;4993189;28;20207;-67
2022/01/09 00:22:38;;;;;;;13.03;6.83;;;-0.20;99.90;;;;;;4993301;28;20766;-68
2022/01/09 00:25:05;;;;;;;12.50;6.90;;;-0.20;99.90;;;;;;4993288;28;20640;-65
2022/01/09 00:27:36;;;;;;;13.90;6.73;;;-0.10;99.90;;;;;;4993535;28;20210;-67
2022/01/09 00:30:03;;;;;;;13.53;7.00;;;-0.10;99.90;;;;;;4992494;28;20202;-68
2022/01/09 00:32:30;;;;;;;15.33;7.37;;;-0.10;99.90;;;;;;4992335;28;20204;-68
2022/01/09 00:34:57;;;;;;;17.50;8.10;;;-0.10;99.90;;;;;;4992850;28;20457;-69
2022/01/09 00:37:24;;;;;;;14.03;6.73;;;-0.10;99.90;;;;;;4993393;28;20219;-68
2022/01/09 00:39:51;;;;;;;16.27;7.20;;;-0.10;99.90;;;;;;4992816;28;20222;-68
2022/01/09 00:42:18;;;;;;;14.57;7.57;;;-0.10;99.90;;;;;;4992958;28;20258;-68
2022/01/09 00:44:46;;;;;;;15.00;7.60;;;-0.20;99.90;;;;;;4992713;28;20213;-67
2022/01/09 00:47:13;;;;;;;14.67;6.97;;;-0.20;99.90;;;;;;4993116;28;20214;-67
2022/01/09 00:49:40;;;;;;;12.97;7.03;;;-0.20;99.90;;;;;;4993103;28;20214;-68
2022/01/09 00:52:07;;;;;;;16.73;7.47;;;-0.20;99.90;;;;;;4992879;28;20561;-67
2022/01/09 00:54:34;;;;;;;11.47;6.60;;;-0.20;99.90;;;;;;4992866;28;20199;-68
2022/01/09 00:57:01;;;;;;;11.87;6.77;;;-0.20;99.90;;;;;;4992477;28;20211;-69
2022/01/09 00:59:28;;;;;;;14.30;7.03;;;-0.20;99.90;;;;;;4992672;28;20235;-67
2022/01/09 01:01:56;;;;;;;15.83;6.80;;;-0.20;99.90;;;;;;4992645;28;20234;-69
2022/01/09 01:04:23;;;;;;;14.63;6.57;;;-0.20;99.90;;;;;;4992726;28;20694;-68
2022/01/09 01:06:51;;;;;;;12.03;6.90;;;-0.20;99.90;;;;;;4992742;28;20664;-69
2022/01/09 01:09:20;;;;;;;12.73;6.97;;;-0.20;99.90;;;;;;4992622;28;20241;-68
2022/01/09 01:11:47;;;;;;;12.97;6.93;;;-0.30;99.90;;;;;;4992788;28;20207;-66
2022/01/09 01:14:14;;;;;;;16.07;7.23;;;-0.30;99.90;;;;;;4992792;28;20207;-68
2022/01/09 01:16:41;;;;;;;14.13;7.43;;;-0.30;99.90;;;;;;4992303;28;20303;-70
2022/01/09 01:19:10;;;;;;;14.67;6.77;;;-0.40;99.90;;;;;;4992512;28;20209;-70
2022/01/09 01:21:38;;;;;;;14.50;6.97;;;-0.40;99.90;;;;;;4992333;28;20218;-68
2022/01/09 01:24:05;;;;;;;15.10;6.67;;;-0.40;99.90;;;;;;4992253;28;20270;-67
2022/01/09 01:26:31;;;;;;;14.93;7.27;;;-0.40;99.90;;;;;;4992652;28;20560;-68
2022/01/09 01:28:58;;;;;;;15.13;7.50;;;-0.50;99.90;;;;;;4992374;28;20659;-69
2022/01/09 01:31:25;;;;;;;17.03;7.37;;;-0.60;99.90;;;;;;4992701;28;20207;-67
2022/01/09 01:33:52;;;;;;;16.93;7.67;;;-0.60;99.90;;;;;;4987021;28;20229;-67
2022/01/09 01:36:21;;;;;;;16.80;7.93;;;-0.70;99.90;;;;;;4972849;28;20207;-67
2022/01/09 01:38:47;;;;;;;16.53;6.83;;;-0.80;99.90;;;;;;4973094;28;20208;-66
2022/01/09 01:41:14;;;;;;;14.97;7.37;;;-0.80;99.90;;;;;;4974268;28;20204;-68
2022/01/09 01:43:41;;;;;;;16.03;8.30;;;-0.80;99.90;;;;;;4976570;28;20235;-67
2022/01/09 01:46:08;;;;;;;23.03;9.93;;;-0.80;99.90;;;;;;4976965;28;20211;-66
2022/01/09 01:48:35;;;;;;;18.33;8.27;;;-0.80;99.90;;;;;;4977859;28;20633;-68
2022/01/09 01:51:01;;;;;;;20.97;9.87;;;-0.80;99.90;;;;;;4995787;28;20196;-67
2022/01/09 01:53:30;;;;;;;22.03;10.17;;;-0.80;99.90;;;;;;4988320;28;20215;-68
2022/01/09 01:55:59;;;;;;;25.43;9.87;;;-0.80;99.90;;;;;;4995718;28;20250;-67
2022/01/09 01:58:27;;;;;;;18.47;8.70;;;-0.90;99.90;;;;;;4995945;28;20783;-67
2022/01/09 02:00:54;;;;;;;21.67;10.17;;;-0.90;99.90;;;;;;4995289;28;20283;-68
2022/01/09 02:03:21;;;;;;;21.43;9.73;;;-1.00;99.90;;;;;;4995933;28;20227;-67
2022/01/09 02:05:49;;;;;;;18.83;9.43;;;-1.00;99.90;;;;;;4995985;28;20683;-68
2022/01/09 02:08:16;;;;;;;18.87;9.03;;;-1.00;99.90;;;;;;4995681;28;20203;-67
2022/01/09 02:10:45;;;;;;;17.87;9.43;;;-1.00;99.90;;;;;;4995481;28;20569;-68
2022/01/09 02:13:12;;;;;;;18.43;9.33;;;-1.10;99.90;;;;;;4995631;28;20258;-68
2022/01/09 02:15:42;;;;;;;19.40;9.27;;;-1.10;99.90;;;;;;4995191;28;20207;-68
2022/01/09 02:18:11;;;;;;;18.13;9.40;;;-1.10;99.90;;;;;;4995357;28;20544;-67
2022/01/09 02:20:40;;;;;;;20.33;9.17;;;-1.10;99.90;;;;;;4995457;28;20200;-67
2022/01/09 02:23:09;;;;;;;16.87;8.40;;;-1.20;99.90;;;;;;4995527;28;20588;-68
2022/01/09 02:25:37;;;;;;;17.40;8.90;;;-1.20;99.90;;;;;;4995432;28;20242;-67
2022/01/09 02:28:05;;;;;;;16.73;8.33;;;-1.30;99.90;;;;;;4995691;28;20657;-67
2022/01/09 02:30:32;;;;;;;21.67;8.97;;;-1.30;99.90;;;;;;4995343;28;20215;-67
2022/01/09 02:32:59;;;;;;;22.87;9.70;;;-1.30;99.90;;;;;;4995416;28;20200;-68
2022/01/09 02:35:27;;;;;;;17.27;8.80;;;-1.40;99.90;;;;;;4995444;28;20207;-66
2022/01/09 02:37:56;;;;;;;17.23;8.90;;;-1.40;99.90;;;;;;4995380;28;20229;-66
2022/01/09 02:40:23;;;;;;;16.67;8.70;;;-1.50;99.90;;;;;;4995269;28;20203;-67
2022/01/09 02:42:50;;;;;;;17.40;8.60;;;-1.50;99.90;;;;;;4995120;28;20238;-66
2022/01/09 02:45:20;;;;;;;17.17;8.83;;;-1.50;99.90;;;;;;4995530;28;20208;-66
2022/01/09 02:47:47;;;;;;;18.37;8.83;;;-1.50;99.90;;;;;;4995102;28;20214;-68
2022/01/09 02:50:28;;;;;;;19.60;9.10;;;-1.50;99.90;;;;;;4995283;28;20287;-67
2022/01/09 02:52:59;;;;;;;18.63;8.93;;;-1.50;99.90;;;;;;4994392;28;20188;-67
2022/01/09 02:55:28;;;;;;;19.57;9.40;;;-1.60;99.90;;;;;;4995222;28;20191;-69
2022/01/09 02:57:56;;;;;;;18.67;9.43;;;-1.60;99.90;;;;;;4995172;28;20207;-67
2022/01/09 03:00:25;;;;;;;20.30;9.23;;;-1.60;99.90;;;;;;4994587;28;20239;-66
2022/01/09 03:02:52;;;;;;;22.53;9.40;;;-1.60;99.90;;;;;;4994483;28;20227;-67
2022/01/09 03:05:19;;;;;;;21.27;9.20;;;-1.60;99.90;;;;;;4994757;28;20207;-67
2022/01/09 03:07:47;;;;;;;20.63;9.53;;;-1.60;99.90;;;;;;4994557;28;20222;-66
2022/01/09 03:10:17;;;;;;;21.20;9.80;;;-1.60;99.90;;;;;;4994831;28;20204;-67
2022/01/09 03:12:45;;;;;;;22.10;10.03;;;-1.60;99.90;;;;;;4994722;28;20211;-67
2022/01/09 03:15:12;;;;;;;20.77;10.23;;;-1.60;99.90;;;;;;4994715;28;20207;-66
2022/01/09 03:17:40;;;;;;;20.50;10.17;;;-1.60;99.90;;;;;;4994474;28;20521;-68
2022/01/09 03:20:09;;;;;;;21.73;10.20;;;-1.60;99.90;;;;;;4994273;28;20200;-67
2022/01/09 03:22:36;;;;;;;18.97;9.63;;;-1.60;99.90;;;;;;4983644;28;20223;-67
2022/01/09 03:25:03;;;;;;;25.13;10.50;;;-1.60;99.90;;;;;;4994458;28;20214;-66
2022/01/09 03:27:31;;;;;;;22.33;10.53;;;-1.70;99.90;;;;;;4993791;28;20208;-67
2022/01/09 03:29:59;;;;;;;23.53;10.27;;;-1.70;99.90;;;;;;4994405;28;20542;-67
2022/01/09 03:32:26;;;;;;;22.77;10.90;;;-1.70;99.90;;;;;;4993537;28;20204;-67
2022/01/09 03:34:53;;;;;;;23.73;11.03;;;-1.80;99.90;;;;;;4994372;28;20649;-67
2022/01/09 03:37:19;;;;;;;23.30;11.00;;;-1.80;99.90;;;;;;4994375;28;20239;-67
2022/01/09 03:39:46;;;;;;;27.53;12.70;;;-1.80;99.90;;;;;;4994029;28;20207;-66
2022/01/09 03:42:13;;;;;;;24.73;11.60;;;-1.80;99.90;;;;;;4994252;28;20567;-67
2022/01/09 03:44:41;;;;;;;27.97;11.97;;;-1.80;99.90;;;;;;4993975;28;20237;-69
2022/01/09 03:47:08;;;;;;;25.90;12.67;;;-1.80;99.90;;;;;;4994040;28;20208;-67
2022/01/09 03:49:34;;;;;;;27.80;11.77;;;-1.80;99.90;;;;;;4993756;28;20227;-67
2022/01/09 03:52:01;;;;;;;23.40;11.33;;;-1.90;99.90;;;;;;4993949;28;20200;-66
2022/01/09 03:54:28;;;;;;;28.53;12.10;;;-1.90;99.90;;;;;;4993901;28;20699;-67
2022/01/09 03:56:55;;;;;;;27.63;13.00;;;-1.90;99.90;;;;;;4993935;28;20569;-66
2022/01/09 03:59:22;;;;;;;31.57;11.93;;;-1.90;99.90;;;;;;4993480;28;20243;-67
2022/01/09 04:01:50;;;;;;;27.23;11.80;;;-1.80;99.90;;;;;;4993495;28;20204;-66
2022/01/09 04:04:17;;;;;;;25.67;11.93;;;-1.80;99.90;;;;;;4993186;28;20371;-68
2022/01/09 04:06:48;;;;;;;30.23;12.60;;;-1.80;99.90;;;;;;4993421;28;20652;-68
2022/01/09 04:09:20;;;;;;;25.13;11.93;;;-1.80;99.90;;;;;;4993679;28;20191;-68
2022/01/09 04:11:48;;;;;;;25.53;12.23;;;-1.80;99.90;;;;;;4993751;28;20625;-66
2022/01/09 04:14:15;;;;;;;29.53;12.33;;;-1.80;99.90;;;;;;4993626;28;20243;-67
2022/01/09 04:16:42;;;;;;;28.10;12.47;;;-1.80;99.90;;;;;;4993360;28;20222;-68
2022/01/09 04:19:13;;;;;;;26.90;12.70;;;-1.80;99.90;;;;;;4992273;28;20207;-67
2022/01/09 04:21:41;;;;;;;31.53;12.83;;;-1.80;99.90;;;;;;4992725;28;20192;-67
2022/01/09 04:24:08;;;;;;;28.93;13.63;;;-1.80;99.90;;;;;;4993367;28;20232;-67
2022/01/09 04:26:35;;;;;;;29.47;12.97;;;-1.80;99.90;;;;;;4992326;28;20222;-69
2022/01/09 04:29:02;;;;;;;30.10;13.17;;;-1.70;99.90;;;;;;4992652;28;20203;-66
2022/01/09 04:31:29;;;;;;;28.43;13.00;;;-1.70;99.90;;;;;;4992592;28;20674;-68
2022/01/09 04:33:55;;;;;;;32.30;12.37;;;-1.70;99.90;;;;;;4992476;28;20559;-68
2022/01/09 04:36:24;;;;;;;27.37;12.10;;;-1.70;99.90;;;;;;4992742;28;20588;-69
2022/01/09 04:38:51;;;;;;;30.87;12.20;;;-1.70;99.90;;;;;;4992676;28;20227;-68
2022/01/09 04:41:18;;;;;;;22.53;12.00;;;-1.70;99.90;;;;;;4992199;28;20305;-66
2022/01/09 04:43:46;;;;;;;28.87;12.43;;;-1.70;99.90;;;;;;4992936;28;20253;-67
2022/01/09 04:46:18;;;;;;;27.33;12.17;;;-1.70;99.90;;;;;;4992479;28;20214;-68
2022/01/09 04:48:46;;;;;;;27.53;12.17;;;-1.70;99.90;;;;;;4992303;28;20191;-68
2022/01/09 04:51:14;;;;;;;24.37;12.07;;;-1.70;99.90;;;;;;4992539;28;20222;-66
2022/01/09 04:53:42;;;;;;;23.93;12.33;;;-1.70;99.90;;;;;;4993053;28;20571;-67
2022/01/09 04:56:09;;;;;;;23.87;12.53;;;-1.70;99.90;;;;;;4992745;28;20203;-66
2022/01/09 04:58:36;;;;;;;27.67;12.10;;;-1.80;99.90;;;;;;4992639;28;20246;-68
2022/01/09 05:01:03;;;;;;;29.37;12.10;;;-1.80;99.90;;;;;;4992546;28;20695;-68
2022/01/09 05:03:30;;;;;;;25.50;12.30;;;-1.80;99.90;;;;;;4991040;28;20219;-67
2022/01/09 05:05:56;;;;;;;29.73;13.80;;;-1.80;99.90;;;;;;4992240;28;20548;-67
2022/01/09 05:08:23;;;;;;;29.30;12.77;;;-1.80;99.90;;;;;;4992275;28;20215;-69
2022/01/09 05:10:51;;;;;;;26.50;12.47;;;-1.80;99.90;;;;;;4991781;28;20207;-67
2022/01/09 05:13:18;;;;;;;26.00;12.33;;;-1.80;99.90;;;;;;4991994;28;20207;-67
2022/01/09 05:15:45;;;;;;;26.20;12.13;;;-1.80;99.90;;;;;;4991717;28;20210;-66
2022/01/09 05:18:14;;;;;;;24.37;11.70;;;-1.90;99.90;;;;;;4992077;28;20211;-66
2022/01/09 05:20:41;;;;;;;28.30;12.27;;;-1.90;99.90;;;;;;4992020;28;20204;-67
2022/01/09 05:23:08;;;;;;;21.17;11.83;;;-1.90;99.90;;;;;;4991824;28;20203;-70
2022/01/09 05:25:35;;;;;;;25.10;12.40;;;-1.80;99.90;;;;;;4992452;28;20214;-67
2022/01/09 05:28:04;;;;;;;21.10;11.60;;;-1.80;99.90;;;;;;4992103;28;20223;-66
2022/01/09 05:30:31;;;;;;;23.70;11.90;;;-1.90;99.90;;;;;;4991705;28;20203;-68
2022/01/09 05:32:58;;;;;;;25.47;11.70;;;-1.90;99.90;;;;;;4992164;28;20208;-69
2022/01/09 05:35:25;;;;;;;25.77;12.83;;;-1.80;99.90;;;;;;4992115;28;20210;-68
2022/01/09 05:37:52;;;;;;;25.33;12.67;;;-1.80;99.90;;;;;;4992373;28;20238;-69
2022/01/09 05:40:19;;;;;;;24.67;12.23;;;-1.80;99.90;;;;;;4991907;28;20207;-70
2022/01/09 05:42:46;;;;;;;27.17;12.00;;;-1.80;99.90;;;;;;4992085;28;20211;-70
2022/01/09 05:45:17;;;;;;;21.17;11.43;;;-1.70;99.90;;;;;;4991704;28;20223;-71
2022/01/09 05:47:43;;;;;;;25.27;11.40;;;-1.70;99.90;;;;;;4992196;28;20679;-68
2022/01/09 05:50:11;;;;;;;25.10;12.47;;;-1.70;99.90;;;;;;4991803;28;20543;-69
2022/01/09 05:52:37;;;;;;;27.50;13.10;;;-1.70;99.90;;;;;;4992140;28;20622;-69
2022/01/09 05:55:05;;;;;;;30.53;12.73;;;-1.80;99.90;;;;;;4992002;28;20207;-68
2022/01/09 05:57:32;;;;;;;24.67;12.50;;;-1.80;99.90;;;;;;4992025;28;20207;-68
2022/01/09 05:59:59;;;;;;;27.37;13.43;;;-1.80;99.90;;;;;;4991724;28;20236;-69
2022/01/09 06:02:27;;;;;;;25.43;12.90;;;-1.80;99.90;;;;;;4991348;28;20687;-68
2022/01/09 06:04:53;;;;;;;22.40;12.40;;;-1.80;99.90;;;;;;4991629;28;20233;-68
2022/01/09 06:07:20;;;;;;;25.40;11.80;;;-1.80;99.90;;;;;;4991919;28;20214;-68
2022/01/09 06:09:47;;;;;;;26.10;12.83;;;-1.80;99.90;;;;;;4992000;28;20211;-69
2022/01/09 06:12:14;;;;;;;25.10;12.20;;;-1.80;99.90;;;;;;4991663;28;20211;-68
2022/01/09 06:14:42;;;;;;;28.40;12.83;;;-1.80;99.90;;;;;;4991446;28;20211;-68
2022/01/09 06:17:08;;;;;;;24.00;12.33;;;-1.80;99.90;;;;;;4991221;28;20211;-67
2022/01/09 06:19:37;;;;;;;24.50;12.57;;;-1.80;99.90;;;;;;4991979;28;20660;-69
2022/01/09 06:22:04;;;;;;;27.70;12.53;;;-1.80;99.90;;;;;;4991582;28;20347;-67
2022/01/09 06:24:31;;;;;;;24.27;11.60;;;-1.80;99.90;;;;;;4991222;28;20216;-69
2022/01/09 06:26:58;;;;;;;23.10;11.93;;;-1.80;99.90;;;;;;4991223;28;20196;-68
2022/01/09 06:29:25;;;;;;;31.00;13.10;;;-1.80;99.90;;;;;;4993866;28;20558;-68
2022/01/09 06:31:51;;;;;;;27.40;13.97;;;-1.70;99.90;;;;;;4994543;28;20199;-66
2022/01/09 06:34:18;;;;;;;27.07;13.30;;;-1.70;99.90;;;;;;4994617;28;20210;-68
2022/01/09 06:36:46;;;;;;;27.30;13.50;;;-1.70;99.90;;;;;;4994996;28;20215;-68
2022/01/09 06:39:13;;;;;;;24.87;13.50;;;-1.70;99.90;;;;;;4994555;28;20204;-67
2022/01/09 06:41:40;;;;;;;27.70;14.57;;;-1.60;99.90;;;;;;4997315;28;20199;-69
2022/01/09 06:44:07;;;;;;;27.77;13.67;;;-1.60;99.90;;;;;;4994646;28;20220;-67
2022/01/09 06:46:33;;;;;;;27.37;14.73;;;-1.60;99.90;;;;;;4989752;28;20674;-70
2022/01/09 06:49:00;;;;;;;28.27;14.77;;;-1.50;99.90;;;;;;4994230;28;20557;-69
2022/01/09 06:51:27;;;;;;;24.17;13.47;;;-1.50;99.90;;;;;;4994466;28;20195;-69
2022/01/09 06:53:55;;;;;;;26.10;14.40;;;-1.50;99.90;;;;;;4990737;28;20203;-68
2022/01/09 06:56:22;;;;;;;27.67;13.93;;;-1.50;99.90;;;;;;4994403;28;20199;-68
2022/01/09 06:58:49;;;;;;;34.00;14.77;;;-1.50;99.90;;;;;;4994277;28;20675;-69
2022/01/09 07:01:16;;;;;;;32.17;15.30;;;-1.50;99.90;;;;;;4993709;28;20223;-69
2022/01/09 07:03:42;;;;;;;31.47;15.23;;;-1.50;99.90;;;;;;4991314;28;20204;-71
2022/01/09 07:06:10;;;;;;;30.90;15.20;;;-1.50;99.90;;;;;;4993539;28;20667;-69
2022/01/09 07:08:37;;;;;;;28.20;14.77;;;-1.50;99.90;;;;;;4994393;28;20253;-70
2022/01/09 07:11:07;;;;;;;31.90;14.63;;;-1.40;99.90;;;;;;4994033;28;20696;-68
2022/01/09 07:13:35;;;;;;;28.00;14.90;;;-1.50;99.90;;;;;;4993193;28;20250;-69
2022/01/09 07:16:01;;;;;;;30.87;14.93;;;-1.50;99.90;;;;;;4994113;28;20234;-70
2022/01/09 07:18:28;;;;;;;29.30;15.40;;;-1.50;99.90;;;;;;4994481;28;20218;-68
2022/01/09 07:20:55;;;;;;;29.40;15.10;;;-1.40;99.90;;;;;;4994615;28;20676;-69
2022/01/09 07:23:22;;;;;;;31.93;15.20;;;-1.40;99.90;;;;;;4994898;28;20203;-67
2022/01/09 07:25:49;;;;;;;29.67;15.90;;;-1.40;99.90;;;;;;4994209;28;20302;-68
2022/01/09 07:28:17;;;;;;;30.53;15.00;;;-1.40;99.90;;;;;;4994210;28;20223;-67
2022/01/09 07:30:44;;;;;;;31.73;15.33;;;-1.40;99.90;;;;;;4993998;28;20403;-67
2022/01/09 07:33:11;;;;;;;31.17;15.27;;;-1.30;99.90;;;;;;4993567;28;20227;-69
2022/01/09 07:35:37;;;;;;;33.50;16.37;;;-1.30;99.90;;;;;;4993777;28;20211;-68
2022/01/09 07:38:04;;;;;;;30.87;16.70;;;-1.30;99.90;;;;;;4993734;28;20668;-68
2022/01/09 07:40:31;;;;;;;34.80;15.80;;;-1.30;99.90;;;;;;4993983;28;20567;-68
2022/01/09 07:42:58;;;;;;;29.07;15.60;;;-1.30;99.90;;;;;;4993524;28;20212;-68
2022/01/09 07:45:27;;;;;;;31.23;16.03;;;-1.20;99.90;;;;;;4993768;28;20298;-69
2022/01/09 07:47:55;;;;;;;34.63;16.07;;;-1.20;99.90;;;;;;4993430;28;20597;-68
2022/01/09 07:50:23;;;;;;;31.50;16.03;;;-1.20;99.90;;;;;;4993669;28;20207;-67
2022/01/09 07:52:51;;;;;;;35.87;17.07;;;-1.20;99.90;;;;;;4993535;28;20670;-68
2022/01/09 07:55:20;;;;;;;36.07;16.83;;;-1.10;99.90;;;;;;4993535;28;20213;-69
2022/01/09 07:57:47;;;;;;;33.77;16.27;;;-1.10;99.90;;;;;;4993270;28;20234;-68
2022/01/09 08:00:15;;;;;;;34.43;16.33;;;-1.10;99.90;;;;;;4993246;28;20239;-69
2022/01/09 08:02:44;;;;;;;31.50;16.90;;;-1.00;99.90;;;;;;4993589;28;20226;-70
2022/01/09 08:05:12;;;;;;;30.43;16.30;;;-1.00;99.90;;;;;;4992755;28;20740;-69
2022/01/09 08:07:40;;;;;;;34.43;17.00;;;-0.90;99.90;;;;;;4993350;28;20211;-68
2022/01/09 08:10:08;;;;;;;31.30;16.97;;;-0.90;99.90;;;;;;4992885;28;20218;-69
2022/01/09 08:12:34;;;;;;;28.37;15.83;;;-0.90;99.90;;;;;;4993270;28;20206;-68
2022/01/09 08:15:01;;;;;;;33.17;17.30;;;-0.80;99.90;;;;;;4993154;28;20640;-68
2022/01/09 08:17:28;;;;;;;36.67;17.57;;;-0.80;99.90;;;;;;4993144;28;20211;-69
2022/01/09 08:19:56;;;;;;;35.03;17.57;;;-0.70;99.90;;;;;;4992715;28;20221;-69
2022/01/09 08:22:28;;;;;;;37.73;17.73;;;-0.70;99.90;;;;;;4992706;28;20211;-69
2022/01/09 08:24:55;;;;;;;35.67;17.27;;;-0.70;99.90;;;;;;4992667;28;20269;-69
2022/01/09 08:27:22;;;;;;;33.10;17.13;;;-0.60;99.90;;;;;;4992878;28;20582;-68
2022/01/09 08:29:48;;;;;;;36.50;18.47;;;-0.60;99.90;;;;;;4991892;28;20199;-67
2022/01/09 08:32:15;;;;;;;36.17;17.77;;;-0.60;99.90;;;;;;4992658;28;20215;-68
2022/01/09 08:34:42;;;;;;;36.97;17.20;;;-0.60;99.90;;;;;;4992670;28;20218;-66
2022/01/09 08:37:12;;;;;;;35.00;18.40;;;-0.60;99.90;;;;;;4992803;28;20218;-68
2022/01/09 08:39:39;;;;;;;33.77;16.67;;;-0.50;99.90;;;;;;4992802;28;20207;-68
2022/01/09 08:42:06;;;;;;;38.33;18.73;;;-0.50;99.90;;;;;;4992283;28;20680;-68
2022/01/09 08:44:33;;;;;;;37.67;18.70;;;-0.50;99.90;;;;;;4992863;28;20258;-67
2022/01/09 08:46:59;;;;;;;39.87;19.57;;;-0.50;99.90;;;;;;4992533;28;20211;-66
2022/01/09 08:49:26;;;;;;;36.50;19.50;;;-0.40;99.90;;;;;;4992512;28;20223;-68
2022/01/09 08:51:55;;;;;;;38.40;19.80;;;-0.40;99.90;;;;;;4992079;28;20214;-68
2022/01/09 08:54:23;;;;;;;40.23;20.10;;;-0.40;99.90;;;;;;4992720;28;20242;-70
2022/01/09 08:56:50;;;;;;;44.23;20.23;;;-0.40;99.90;;;;;;4992267;28;20732;-69
2022/01/09 08:59:17;;;;;;;39.20;20.37;;;-0.40;99.90;;;;;;4992045;28;20227;-69
2022/01/09 09:01:44;;;;;;;41.10;21.77;;;-0.30;99.90;;;;;;4992147;28;20215;-68
2022/01/09 09:04:11;;;;;;;38.17;20.40;;;-0.30;99.90;;;;;;4992679;28;20214;-69
2022/01/09 09:06:38;;;;;;;41.67;20.60;;;-0.30;99.90;;;;;;4991795;28;20226;-69
2022/01/09 09:09:05;;;;;;;42.63;20.47;;;-0.30;99.90;;;;;;4992603;28;20207;-70
2022/01/09 09:11:33;;;;;;;45.83;21.63;;;-0.30;99.90;;;;;;4992384;28;20297;-70
2022/01/09 09:14:00;;;;;;;42.50;20.73;;;-0.30;99.90;;;;;;4992203;28;20309;-69
2022/01/09 09:16:27;;;;;;;44.50;21.70;;;-0.20;99.90;;;;;;4992803;28;20203;-70
2022/01/09 09:18:54;;;;;;;43.03;21.87;;;-0.20;99.90;;;;;;4992358;28;20207;-69
2022/01/09 09:21:21;;;;;;;51.83;23.00;;;-0.20;99.90;;;;;;4992558;28;20690;-69
2022/01/09 09:23:47;;;;;;;40.37;20.27;;;-0.20;99.90;;;;;;4991875;28;20698;-69
2022/01/09 09:26:16;;;;;;;43.83;21.27;;;-0.20;99.90;;;;;;4992098;28;20252;-70
2022/01/09 09:28:45;;;;;;;45.17;22.07;;;-0.20;99.90;;;;;;4992059;28;20694;-70
2022/01/09 09:31:12;;;;;;;45.03;22.37;;;-0.10;99.90;;;;;;4992101;28;20562;-70
2022/01/09 09:33:38;;;;;;;49.97;23.47;;;-0.20;99.90;;;;;;4991814;28;20210;-69
2022/01/09 09:36:05;;;;;;;51.00;24.23;;;-0.10;99.90;;;;;;4992121;28;20601;-70
2022/01/09 09:38:33;;;;;;;54.17;25.43;;;-0.10;99.90;;;;;;4992250;28;20298;-68
2022/01/09 09:41:00;;;;;;;59.63;27.63;;;-0.10;99.90;;;;;;4991998;28;20233;-66
2022/01/09 09:43:27;;;;;;;48.90;24.97;;;0.00;99.90;;;;;;4991965;28;20207;-71
2022/01/09 09:45:55;;;;;;;57.23;26.43;;;0.00;99.90;;;;;;4991304;28;20239;-70
2022/01/09 09:48:23;;;;;;;58.43;27.23;;;0.00;99.90;;;;;;4992275;28;20203;-68
2022/01/09 09:50:50;;;;;;;56.97;26.33;;;0.00;99.90;;;;;;4991931;28;20692;-69
2022/01/09 09:53:17;;;;;;;57.23;26.57;;;0.00;99.90;;;;;;4991468;28;20204;-70
2022/01/09 09:55:46;;;;;;;50.87;23.33;;;0.00;99.90;;;;;;4991799;28;20222;-70
2022/01/09 09:58:13;;;;;;;45.20;22.63;;;0.00;99.90;;;;;;4992099;28;20735;-70
2022/01/09 10:00:40;;;;;;;45.73;22.13;;;0.10;99.90;;;;;;4991338;28;20718;-68
2022/01/09 10:03:08;;;;;;;50.37;23.47;;;0.10;99.90;;;;;;4994226;28;20204;-69
2022/01/09 10:05:37;;;;;;;48.13;22.17;;;0.10;99.90;;;;;;4995255;28;20754;-70
2022/01/09 10:08:08;;;;;;;48.67;23.47;;;0.10;99.90;;;;;;4995805;28;20210;-70
2022/01/09 10:10:37;;;;;;;46.00;21.40;;;0.10;99.90;;;;;;4995157;28;20520;-69
2022/01/09 10:13:12;;;;;;;43.30;22.50;;;0.10;99.90;;;;;;4995030;28;20549;-68
2022/01/09 10:15:47;;;;;;;46.83;23.57;;;0.10;99.90;;;;;;4994971;28;20652;-67
2022/01/09 10:18:39;;;;;;;46.90;23.20;;;0.00;99.90;;;;;;4994731;28;20213;-68
2022/01/09 10:21:07;;;;;;;47.87;23.13;;;0.00;99.90;;;;;;4995348;28;20656;-68
2022/01/09 10:23:34;;;;;;;45.83;22.53;;;0.00;99.90;;;;;;4994965;28;20215;-67
2022/01/09 10:26:11;;;;;;;47.77;22.60;;;0.00;99.90;;;;;;4994537;28;20254;-68
2022/01/09 10:28:38;;;;;;;46.47;22.33;;;0.00;99.90;;;;;;4994693;28;20713;-67
2022/01/09 10:31:15;;;;;;;45.40;22.67;;;0.00;99.90;;;;;;4995081;28;20611;-68
2022/01/09 10:33:57;;;;;;;43.53;22.50;;;0.00;99.90;;;;;;4994929;28;20192;-68
2022/01/09 10:36:36;;;;;;;44.20;22.00;;;0.00;99.90;;;;;;4994933;28;20187;-68
2022/01/09 10:39:05;;;;;;;41.20;20.33;;;0.00;99.90;;;;;;4994470;28;20298;-69
2022/01/09 10:41:46;;;;;;;40.53;21.00;;;0.00;99.90;;;;;;4994268;28;20207;-67
2022/01/09 10:44:17;;;;;;;38.80;20.13;;;0.00;99.90;;;;;;4995047;28;20294;-69
2022/01/09 10:46:54;;;;;;;46.13;21.40;;;0.10;99.90;;;;;;4994378;28;20606;-67
2022/01/09 10:49:23;;;;;;;43.13;21.80;;;0.10;99.90;;;;;;4994637;28;20203;-69
2022/01/09 10:51:50;;;;;;;47.53;23.03;;;0.10;99.90;;;;;;4998690;28;20235;-66
2022/01/09 10:54:30;;;;;;;43.27;21.93;;;0.10;99.90;;;;;;4994723;28;20591;-66
2022/01/09 10:57:14;;;;;;;44.33;22.10;;;0.20;99.90;;;;;;4975017;28;20274;-68
2022/01/09 10:59:41;;;;;;;43.93;22.57;;;0.20;99.90;;;;;;4986878;28;20498;-66
2022/01/09 11:02:10;;;;;;;47.60;23.30;;;0.20;99.90;;;;;;4994447;28;20218;-67
2022/01/09 11:04:38;;;;;;;41.93;22.00;;;0.20;99.90;;;;;;4994893;28;20226;-67
2022/01/09 11:07:06;;;;;;;42.73;20.40;;;0.20;99.90;;;;;;4994713;28;20258;-67
2022/01/09 11:09:34;;;;;;;42.57;21.70;;;0.10;99.90;;;;;;4994320;28;20207;-68
2022/01/09 11:12:03;;;;;;;41.53;21.87;;;0.10;99.90;;;;;;4993659;28;20203;-67
2022/01/09 11:14:35;;;;;;;45.10;22.77;;;0.00;99.90;;;;;;4993263;28;20576;-66
2022/01/09 11:17:05;;;;;;;40.37;20.93;;;0.00;99.90;;;;;;4993388;28;20194;-68
2022/01/09 11:19:33;;;;;;;43.07;21.53;;;0.00;99.90;;;;;;4993295;28;20211;-68
2022/01/09 11:22:05;;;;;;;43.33;22.27;;;0.00;99.90;;;;;;4992576;28;20640;-67
2022/01/09 11:24:57;;;;;;;45.07;21.40;;;0.10;99.90;;;;;;4992973;28;20195;-67
2022/01/09 11:27:31;;;;;;;40.93;21.60;;;0.10;99.90;;;;;;4993169;28;20249;-67
2022/01/09 11:30:06;;;;;;;45.33;24.10;;;0.20;99.90;;;;;;4985827;28;20203;-68
2022/01/09 11:32:47;;;;;;;47.90;23.90;;;0.10;99.90;;;;;;4996172;28;20222;-67
2022/01/09 11:35:24;;;;;;;47.73;23.37;;;0.10;99.90;;;;;;4992402;28;20195;-66
2022/01/09 11:38:02;;;;;;;44.13;22.50;;;0.20;99.90;;;;;;4993049;28;20195;-67
2022/01/09 11:40:31;;;;;;;46.43;22.83;;;0.20;99.90;;;;;;4992260;28;20223;-68
2022/01/09 11:43:03;;;;;;;44.00;22.67;;;0.10;99.90;;;;;;4993048;28;20203;-67
2022/01/09 11:45:47;;;;;;;48.77;22.87;;;0.10;99.90;;;;;;4991998;28;20234;-68
2022/01/09 11:48:16;;;;;;;45.17;22.60;;;0.10;99.90;;;;;;4993088;28;20624;-69
2022/01/09 11:51:12;;;;;;;43.33;22.20;;;0.00;99.90;;;;;;4992815;28;20287;-67
2022/01/09 11:54:04;;;;;;;46.20;24.37;;;0.00;99.90;;;;;;4990168;28;20203;-67
2022/01/09 11:56:54;;;;;;;49.83;24.90;;;0.00;99.90;;;;;;4992633;28;20203;-69
2022/01/09 11:59:24;;;;;;;48.07;24.93;;;0.00;99.90;;;;;;4987781;28;20238;-68
2022/01/09 12:01:53;;;;;;;51.63;25.53;;;0.00;99.90;;;;;;4994290;28;20211;-69
2022/01/09 12:04:55;;;;;;;50.50;24.17;;;0.00;99.90;;;;;;4990791;28;20206;-68
2022/01/09 12:08:02;;;;;;;53.40;24.80;;;0.00;99.90;;;;;;4991265;28;20215;-69
2022/01/09 12:10:32;;;;;;;47.70;24.13;;;0.00;99.90;;;;;;4992142;28;20652;-66
2022/01/09 12:13:00;;;;;;;52.90;25.37;;;0.10;99.90;;;;;;4991979;28;20254;-67
2022/01/09 12:15:39;;;;;;;51.67;25.63;;;0.10;99.90;;;;;;4991514;28;20208;-67
2022/01/09 12:18:07;;;;;;;53.00;26.10;;;0.10;99.90;;;;;;4992127;28;20282;-68
2022/01/09 12:20:41;;;;;;;50.80;25.10;;;0.10;99.90;;;;;;4992379;28;20207;-68
2022/01/09 12:23:08;;;;;;;54.07;26.57;;;0.20;99.90;;;;;;4991826;28;20188;-67
2022/01/09 12:25:50;;;;;;;50.07;25.83;;;0.20;99.90;;;;;;4990913;28;20196;-66
2022/01/09 12:28:20;;;;;;;53.23;25.80;;;0.10;99.90;;;;;;4981446;28;20195;-66
2022/01/09 12:30:51;;;;;;;52.40;24.80;;;0.10;99.90;;;;;;4993780;28;20208;-69
2022/01/09 12:33:49;;;;;;;52.80;25.20;;;0.10;99.90;;;;;;4992892;28;20306;-67
2022/01/09 12:36:24;;;;;;;62.23;27.20;;;0.00;99.90;;;;;;4973958;28;20598;-70
2022/01/09 12:38:55;;;;;;;53.87;27.43;;;0.00;99.90;;;;;;4973991;28;20192;-71